Time;durP1;ratioP1;P1;durP2;ratioP2;P2;SDS_P1;SDS_P2;PMS_P1;PMS_P2;Temp;Humidity;BMP_temperature;BMP_pressure;BME280_temperature;BME280_humidity;BME280_pressure;Samples;Min_cycle;Max_cycle;Signal;HPM_P1;HPM_P2
2022/12/02 00:01:27;;;;;;;63.17;36.20;;;8.20;99.90;;;;;;5008761;28;20208;-31
2022/12/02 00:03:55;;;;;;;53.83;33.20;;;8.20;99.90;;;;;;5008012;28;20210;-31
2022/12/02 00:06:28;;;;;;;61.27;35.57;;;8.20;99.90;;;;;;5007985;28;20236;-31
2022/12/02 00:09:08;;;;;;;54.43;31.87;;;8.20;99.90;;;;;;5008084;28;20771;-31
2022/12/02 00:11:39;;;;;;;58.73;33.47;;;8.20;99.90;;;;;;5007835;28;20229;-31
2022/12/02 00:14:20;;;;;;;57.37;34.03;;;8.20;99.90;;;;;;5007479;28;20794;-31
2022/12/02 00:16:53;;;;;;;59.30;34.10;;;8.20;99.90;;;;;;5006688;28;20225;-31
2022/12/02 00:19:21;;;;;;;58.50;33.63;;;8.20;99.90;;;;;;5007603;28;20259;-31
2022/12/02 00:21:51;;;;;;;57.47;34.33;;;8.10;99.90;;;;;;5022773;28;20233;-31
2022/12/02 00:24:21;;;;;;;55.80;32.87;;;8.20;99.90;;;;;;5007487;28;20211;-31
2022/12/02 00:26:48;;;;;;;58.27;33.67;;;8.20;99.90;;;;;;5007624;28;20202;-31
2022/12/02 00:29:15;;;;;;;55.93;33.23;;;8.20;99.90;;;;;;5007119;28;20213;-31
2022/12/02 00:31:42;;;;;;;56.07;33.43;;;8.20;99.90;;;;;;5007136;28;20256;-31
2022/12/02 00:34:14;;;;;;;56.53;33.77;;;8.20;99.90;;;;;;5007572;28;20225;-31
2022/12/02 00:36:43;;;;;;;57.47;33.20;;;8.20;99.90;;;;;;5007244;28;20310;-31
2022/12/02 00:39:11;;;;;;;60.57;33.50;;;8.20;99.90;;;;;;5007892;28;20247;-31
2022/12/02 00:41:40;;;;;;;55.20;31.70;;;8.20;99.90;;;;;;5007329;28;20296;-31
2022/12/02 00:46:53;;;;;;;54.83;32.53;;;8.20;99.90;;;;;;5007595;28;20217;-31
2022/12/02 00:49:20;;;;;;;54.77;32.03;;;8.20;99.90;;;;;;5005767;28;20261;-31
2022/12/02 00:51:49;;;;;;;51.27;31.53;;;8.20;99.90;;;;;;5007295;28;20300;-31
2022/12/02 00:54:19;;;;;;;50.97;32.10;;;8.20;99.90;;;;;;5006778;28;20217;-31
2022/12/02 00:56:48;;;;;;;55.13;32.13;;;8.20;99.90;;;;;;5007423;28;20714;-31
2022/12/02 00:59:15;;;;;;;54.73;32.60;;;8.20;99.90;;;;;;5006871;28;20213;-31
2022/12/02 01:01:43;;;;;;;58.67;32.90;;;8.30;99.90;;;;;;5006605;28;20237;-31
2022/12/02 01:04:15;;;;;;;53.73;31.93;;;8.20;99.90;;;;;;5006759;28;20547;-31
2022/12/02 01:06:43;;;;;;;54.13;32.30;;;8.30;99.90;;;;;;5006381;28;20767;-31
2022/12/02 01:09:10;;;;;;;59.37;32.83;;;8.30;99.90;;;;;;5006454;28;20189;-31
2022/12/02 01:11:42;;;;;;;57.43;32.43;;;8.20;99.90;;;;;;5021513;28;20206;-31
2022/12/02 01:14:11;;;;;;;58.37;32.63;;;8.30;99.90;;;;;;5006428;28;20221;-31
2022/12/02 01:16:40;;;;;;;56.00;32.47;;;8.30;99.90;;;;;;5021334;28;20233;-31
2022/12/02 01:19:10;;;;;;;54.47;31.40;;;8.30;99.90;;;;;;5006494;28;20240;-31
2022/12/02 01:21:42;;;;;;;55.40;31.90;;;8.20;99.90;;;;;;5006230;28;20204;-31
2022/12/02 01:24:13;;;;;;;51.73;31.17;;;8.30;99.90;;;;;;5006341;28;20209;-31
2022/12/02 01:26:40;;;;;;;51.43;31.93;;;8.30;99.90;;;;;;5006264;28;20201;-31
2022/12/02 01:29:10;;;;;;;49.70;30.73;;;8.30;99.90;;;;;;5006454;28;20300;-31
2022/12/02 01:31:41;;;;;;;53.10;31.40;;;8.20;99.90;;;;;;5006093;28;20210;-31
2022/12/02 01:34:11;;;;;;;57.63;32.07;;;8.30;99.90;;;;;;5006169;28;20556;-31
2022/12/02 01:36:42;;;;;;;44.23;28.53;;;8.20;99.90;;;;;;5006159;28;20288;-31
2022/12/02 01:39:12;;;;;;;52.60;31.67;;;8.30;99.90;;;;;;5006458;28;20691;-31
2022/12/02 01:41:39;;;;;;;54.10;31.60;;;8.20;99.90;;;;;;5006491;28;20201;-31
2022/12/02 01:44:08;;;;;;;51.10;31.77;;;8.20;99.90;;;;;;5006131;28;20190;-31
2022/12/02 01:46:37;;;;;;;52.37;31.13;;;8.20;99.90;;;;;;5006364;28;20255;-31
2022/12/02 01:49:04;;;;;;;48.90;29.87;;;8.20;99.90;;;;;;5006067;28;20265;-31
2022/12/02 01:51:36;;;;;;;54.33;30.60;;;8.20;99.90;;;;;;5006109;28;20698;-31
2022/12/02 01:54:03;;;;;;;51.17;31.63;;;8.20;99.90;;;;;;5005928;28;20279;-31
2022/12/02 01:56:33;;;;;;;58.27;32.43;;;8.20;99.90;;;;;;5005967;28;20300;-31
2022/12/02 01:59:03;;;;;;;54.70;31.40;;;8.20;99.90;;;;;;4995051;28;20217;-31
2022/12/02 02:01:33;;;;;;;53.63;31.70;;;8.20;99.90;;;;;;4988384;28;20685;-31
2022/12/02 02:04:01;;;;;;;54.17;32.13;;;8.20;99.90;;;;;;4992309;28;20717;-31
2022/12/02 02:06:33;;;;;;;50.53;30.27;;;8.20;99.90;;;;;;5001396;28;20198;-30
2022/12/02 02:09:05;;;;;;;56.47;32.17;;;8.20;99.90;;;;;;4997217;28;20300;-31
2022/12/02 02:11:34;;;;;;;57.10;31.80;;;8.20;99.90;;;;;;5006019;28;20603;-31
2022/12/02 02:14:05;;;;;;;53.37;32.17;;;8.20;99.90;;;;;;5005300;28;20245;-31
2022/12/02 02:16:37;;;;;;;55.77;32.33;;;8.20;99.90;;;;;;4991918;28;20217;-31
2022/12/02 02:19:11;;;;;;;54.63;32.17;;;8.20;99.90;;;;;;5005858;28;20619;-31
2022/12/02 02:21:47;;;;;;;52.17;31.70;;;8.10;99.90;;;;;;5005364;28;20202;-31
2022/12/02 02:24:14;;;;;;;50.73;30.60;;;8.20;99.90;;;;;;5005666;28;20730;-31
2022/12/02 02:26:43;;;;;;;55.93;31.63;;;8.10;99.90;;;;;;5006130;28;20293;-31
2022/12/02 02:29:10;;;;;;;54.63;32.13;;;8.10;99.90;;;;;;5005757;28;20210;-31
2022/12/02 02:31:38;;;;;;;55.87;32.10;;;8.10;99.90;;;;;;5005886;28;20584;-31
2022/12/02 02:34:05;;;;;;;56.90;32.33;;;8.10;99.90;;;;;;5007091;28;20205;-31
2022/12/02 02:36:34;;;;;;;55.23;31.03;;;8.10;99.90;;;;;;5005986;28;20317;-31
2022/12/02 02:39:04;;;;;;;52.23;32.03;;;8.10;99.90;;;;;;5006941;28;20205;-31
2022/12/02 02:41:34;;;;;;;60.23;32.80;;;8.10;99.90;;;;;;5009881;28;20221;-31
2022/12/02 02:44:01;;;;;;;56.23;30.43;;;8.10;99.90;;;;;;5009979;28;20205;-31
2022/12/02 02:46:31;;;;;;;57.60;32.60;;;8.10;99.90;;;;;;5024511;28;20236;-31
2022/12/02 02:49:01;;;;;;;52.67;31.77;;;8.10;99.90;;;;;;5009465;28;20229;-31
2022/12/02 02:51:31;;;;;;;55.40;31.63;;;8.10;99.90;;;;;;5009409;28;20198;-31
2022/12/02 02:54:01;;;;;;;53.63;32.30;;;8.10;99.90;;;;;;5009601;28;20711;-31
2022/12/02 02:56:28;;;;;;;52.50;30.97;;;8.10;99.90;;;;;;5009678;28;20225;-31
2022/12/02 02:58:55;;;;;;;52.60;31.07;;;8.10;99.90;;;;;;5009429;28;20202;-31
2022/12/02 03:01:29;;;;;;;48.83;30.70;;;8.10;99.90;;;;;;5009211;28;20752;-31
2022/12/02 03:04:02;;;;;;;54.30;31.63;;;8.10;99.90;;;;;;5009046;28;20726;-31
2022/12/02 03:06:33;;;;;;;53.87;31.20;;;8.10;99.90;;;;;;5009254;28;20599;-31
2022/12/02 03:09:07;;;;;;;56.30;31.63;;;8.10;99.90;;;;;;5009610;28;20198;-31
2022/12/02 03:11:35;;;;;;;54.13;30.23;;;8.10;99.90;;;;;;5009200;28;20324;-31
2022/12/02 03:14:05;;;;;;;51.73;31.30;;;8.10;99.90;;;;;;5009011;28;20260;-31
2022/12/02 03:16:35;;;;;;;55.67;33.17;;;8.10;99.90;;;;;;5009091;28;20257;-31
2022/12/02 03:19:03;;;;;;;52.10;30.70;;;8.10;99.90;;;;;;5009251;28;20201;-31
2022/12/02 03:21:34;;;;;;;53.33;31.23;;;8.10;99.90;;;;;;5008838;28;20208;-31
2022/12/02 03:24:03;;;;;;;51.37;31.03;;;8.10;99.90;;;;;;5008742;28;20576;-31
2022/12/02 03:26:32;;;;;;;55.63;32.53;;;8.20;99.90;;;;;;5023336;28;20292;-31
2022/12/02 03:29:05;;;;;;;58.03;33.00;;;8.20;99.90;;;;;;5008748;28;20258;-31
2022/12/02 03:31:35;;;;;;;60.37;33.30;;;8.20;99.90;;;;;;5008944;28;20242;-31
2022/12/02 03:34:03;;;;;;;55.70;32.07;;;8.20;99.90;;;;;;5008985;28;20198;-31
2022/12/02 03:36:31;;;;;;;56.17;32.00;;;8.20;99.90;;;;;;5023919;28;20725;-31
2022/12/02 03:38:58;;;;;;;53.03;32.13;;;8.20;99.90;;;;;;5008349;28;20305;-31
2022/12/02 03:41:28;;;;;;;55.43;32.23;;;8.20;99.90;;;;;;5008474;28;20198;-31
2022/12/02 03:43:59;;;;;;;51.27;30.70;;;8.20;99.90;;;;;;5008206;28;20214;-31
2022/12/02 03:46:27;;;;;;;52.67;32.80;;;8.20;99.90;;;;;;5008676;28;20221;-31
2022/12/02 03:48:58;;;;;;;56.00;32.73;;;8.20;99.90;;;;;;5023115;28;20336;-31
2022/12/02 03:51:30;;;;;;;58.23;34.20;;;8.20;99.90;;;;;;5007224;28;20296;-31
2022/12/02 03:54:02;;;;;;;58.83;33.77;;;8.20;99.90;;;;;;5008405;28;20632;-31
2022/12/02 03:56:41;;;;;;;59.93;33.23;;;8.10;99.90;;;;;;5022991;28;20333;-30
2022/12/02 03:59:10;;;;;;;54.83;32.17;;;8.10;99.90;;;;;;5008195;28;20197;-31
2022/12/02 04:01:37;;;;;;;56.53;33.60;;;8.10;99.90;;;;;;5008523;28;20588;-31
2022/12/02 04:04:07;;;;;;;59.67;33.70;;;8.10;99.90;;;;;;5007947;28;20730;-31
2022/12/02 04:06:34;;;;;;;60.90;34.77;;;8.20;99.90;;;;;;5008013;28;20290;-31
2022/12/02 04:09:01;;;;;;;62.30;34.23;;;8.10;99.90;;;;;;5007982;28;20233;-31
2022/12/02 04:11:28;;;;;;;63.07;35.10;;;8.10;99.90;;;;;;5008108;28;20692;-31
2022/12/02 04:13:58;;;;;;;66.07;34.77;;;8.10;99.90;;;;;;5007990;28;20202;-31
2022/12/02 04:16:27;;;;;;;53.93;32.60;;;8.10;99.90;;;;;;5007754;28;20255;-31
2022/12/02 04:18:54;;;;;;;56.50;33.60;;;8.10;99.90;;;;;;5022620;28;20217;-31
2022/12/02 04:21:24;;;;;;;60.00;34.23;;;8.10;99.90;;;;;;5007958;28;20731;-31
2022/12/02 04:23:51;;;;;;;63.60;34.00;;;8.10;99.90;;;;;;5008219;28;20194;-30
2022/12/02 04:26:21;;;;;;;58.40;34.10;;;8.10;99.90;;;;;;5008067;28;20221;-31
2022/12/02 04:28:50;;;;;;;64.93;34.70;;;8.10;99.90;;;;;;5007706;28;20208;-31
2022/12/02 04:31:17;;;;;;;61.00;34.43;;;8.10;99.90;;;;;;5007984;28;20218;-31
2022/12/02 04:33:49;;;;;;;64.53;34.93;;;8.10;99.90;;;;;;5007435;28;20205;-31
2022/12/02 04:36:16;;;;;;;69.50;36.17;;;8.10;99.90;;;;;;5007407;28;20243;-31
2022/12/02 04:38:46;;;;;;;63.80;36.20;;;8.10;99.90;;;;;;5007550;28;20293;-31
2022/12/02 04:41:15;;;;;;;67.00;35.87;;;8.00;99.90;;;;;;5007432;28;20202;-31
2022/12/02 04:43:47;;;;;;;70.67;38.20;;;8.00;99.90;;;;;;5007345;28;20210;-31
2022/12/02 04:46:21;;;;;;;71.73;36.73;;;8.00;99.90;;;;;;5007669;28;20740;-31
2022/12/02 04:48:51;;;;;;;68.60;36.10;;;8.00;99.90;;;;;;5007348;28;20229;-31
2022/12/02 04:51:18;;;;;;;68.57;36.60;;;8.00;99.90;;;;;;5007421;28;20201;-31
2022/12/02 04:53:45;;;;;;;70.13;37.83;;;8.00;99.90;;;;;;5006775;28;20214;-31
2022/12/02 04:56:15;;;;;;;71.60;37.93;;;8.00;99.90;;;;;;5006922;28;20956;-31
2022/12/02 04:58:44;;;;;;;68.20;36.10;;;8.00;99.90;;;;;;5007594;28;20197;-31
2022/12/02 05:01:11;;;;;;;70.00;37.07;;;8.00;99.90;;;;;;5021925;28;20313;-31
2022/12/02 05:03:41;;;;;;;69.07;37.03;;;8.00;99.90;;;;;;5006447;28;20260;-31
2022/12/02 05:06:10;;;;;;;73.47;36.20;;;8.10;99.90;;;;;;5007145;28;20197;-31
2022/12/02 05:08:37;;;;;;;68.03;37.00;;;8.00;99.90;;;;;;5007212;28;20431;-31
2022/12/02 05:11:07;;;;;;;72.87;39.60;;;8.00;99.90;;;;;;5006917;28;20229;-31
2022/12/02 05:13:36;;;;;;;74.80;39.80;;;8.00;99.90;;;;;;5007124;28;20201;-31
2022/12/02 05:16:04;;;;;;;77.00;39.67;;;8.00;99.90;;;;;;5006921;28;20225;-31
2022/12/02 05:18:33;;;;;;;76.80;39.37;;;8.00;99.90;;;;;;5007119;28;20205;-31
2022/12/02 05:21:01;;;;;;;77.70;39.03;;;7.90;99.90;;;;;;5007091;28;20247;-31
2022/12/02 05:23:28;;;;;;;84.37;42.27;;;7.80;99.90;;;;;;5007289;28;20198;-31
2022/12/02 05:25:57;;;;;;;81.57;42.30;;;7.70;99.90;;;;;;5006846;28;20201;-31
2022/12/02 05:28:24;;;;;;;80.40;42.37;;;7.70;99.90;;;;;;5021741;28;20703;-31
2022/12/02 05:30:52;;;;;;;88.07;43.10;;;7.60;99.90;;;;;;5006583;28;20696;-31
2022/12/02 05:33:19;;;;;;;94.17;46.53;;;7.60;99.90;;;;;;5007066;28;20194;-31
2022/12/02 05:35:49;;;;;;;94.97;47.13;;;7.60;99.90;;;;;;5006311;28;20383;-31
2022/12/02 05:38:18;;;;;;;87.63;45.40;;;7.60;99.90;;;;;;5006911;28;20315;-33
2022/12/02 05:40:47;;;;;;;89.30;46.50;;;7.50;99.90;;;;;;5006282;28;20205;-33
2022/12/02 05:43:27;;;;;;;93.03;45.50;;;7.60;99.90;;;;;;5006549;28;20209;-32
2022/12/02 05:45:58;;;;;;;88.23;44.90;;;7.60;99.90;;;;;;5021370;28;20627;-32
2022/12/02 05:48:34;;;;;;;92.40;44.90;;;7.50;99.90;;;;;;5006537;28;20230;-33
2022/12/02 05:51:01;;;;;;;85.80;43.90;;;7.50;99.90;;;;;;5006493;28;20198;-32
2022/12/02 05:53:28;;;;;;;92.87;44.90;;;7.50;99.90;;;;;;5006571;28;20673;-33
2022/12/02 05:55:56;;;;;;;91.17;44.83;;;7.50;99.90;;;;;;5006376;28;20945;-33
2022/12/02 05:58:25;;;;;;;87.80;42.37;;;7.60;99.90;;;;;;5007090;28;20205;-32
2022/12/02 06:00:59;;;;;;;89.07;43.17;;;7.60;99.90;;;;;;5006893;28;20210;-32
2022/12/02 06:03:26;;;;;;;94.47;45.23;;;7.60;99.90;;;;;;5005122;28;20197;-32
2022/12/02 06:06:01;;;;;;;94.80;43.87;;;7.50;99.90;;;;;;5006830;28;20904;-32
2022/12/02 06:08:32;;;;;;;99.50;43.77;;;7.40;99.90;;;;;;5006303;28;20205;-33
2022/12/02 06:11:23;;;;;;;88.10;44.47;;;7.40;99.90;;;;;;5006370;28;20553;-32
2022/12/02 06:13:54;;;;;;;95.90;43.93;;;7.40;99.90;;;;;;5006731;28;20245;-33
2022/12/02 06:16:29;;;;;;;80.93;39.37;;;7.30;99.90;;;;;;5009824;28;20700;-32
2022/12/02 06:18:59;;;;;;;93.77;43.97;;;7.40;99.90;;;;;;5009167;28;20202;-32
2022/12/02 06:21:31;;;;;;;89.47;41.20;;;7.30;99.90;;;;;;5010307;28;20218;-32
2022/12/02 06:24:07;;;;;;;96.03;41.23;;;7.30;99.90;;;;;;5010172;28;20200;-32
2022/12/02 06:26:37;;;;;;;101.30;44.10;;;7.30;99.90;;;;;;5010476;28;20609;-32
2022/12/02 06:29:04;;;;;;;81.23;39.23;;;7.20;99.90;;;;;;5009404;28;20762;-32
2022/12/02 06:31:41;;;;;;;98.20;44.80;;;7.20;99.90;;;;;;5024750;28;20217;-32
2022/12/02 06:34:56;;;;;;;94.00;41.30;;;7.20;99.90;;;;;;5010022;28;20197;-33
2022/12/02 06:37:32;;;;;;;104.10;44.20;;;7.20;99.90;;;;;;4998024;28;20315;-32
2022/12/02 06:40:18;;;;;;;99.33;42.77;;;7.00;99.90;;;;;;5024246;28;20274;-33
2022/12/02 06:43:00;;;;;;;102.90;44.10;;;7.00;99.90;;;;;;5009603;28;20209;-32
2022/12/02 06:45:31;;;;;;;96.07;41.10;;;6.90;99.90;;;;;;5009410;28;20205;-32
2022/12/02 06:48:06;;;;;;;91.40;42.27;;;6.90;99.90;;;;;;5023991;28;20633;-32
2022/12/02 06:50:43;;;;;;;88.97;42.07;;;7.00;99.90;;;;;;5009384;28;20210;-32
2022/12/02 06:53:31;;;;;;;90.97;41.67;;;7.00;99.90;;;;;;5009687;28;20652;-33
2022/12/02 06:56:10;;;;;;;95.73;43.27;;;7.00;99.90;;;;;;5009074;28;20252;-33
2022/12/02 06:59:00;;;;;;;84.13;37.77;;;6.90;99.90;;;;;;5009097;28;20198;-33
2022/12/02 07:01:31;;;;;;;87.53;38.23;;;6.80;99.90;;;;;;5024212;28;20193;-33
2022/12/02 07:04:07;;;;;;;80.37;37.97;;;6.70;99.90;;;;;;5009398;28;20275;-33
2022/12/02 07:06:38;;;;;;;82.93;37.23;;;6.70;99.90;;;;;;5009627;28;20263;-33
2022/12/02 07:09:15;;;;;;;74.50;36.73;;;6.70;99.90;;;;;;5009183;28;20205;-33
2022/12/02 07:11:52;;;;;;;73.67;35.33;;;6.70;99.90;;;;;;5009134;28;20224;-33
2022/12/02 07:14:36;;;;;;;76.60;36.87;;;6.70;99.90;;;;;;5009048;28;20586;-33
2022/12/02 07:17:45;;;;;;;72.20;34.30;;;6.70;99.90;;;;;;5009184;28;20766;-33
2022/12/02 07:20:32;;;;;;;74.67;35.40;;;6.70;99.90;;;;;;5009120;28;20204;-33
2022/12/02 07:23:25;;;;;;;71.37;36.63;;;6.60;99.90;;;;;;5007759;28;20217;-33
2022/12/02 07:25:54;;;;;;;68.23;35.87;;;6.60;99.90;;;;;;5008333;28;20221;-33
2022/12/02 07:28:35;;;;;;;72.60;37.80;;;6.50;99.90;;;;;;5008828;28;20193;-33
2022/12/02 07:31:04;;;;;;;78.47;38.03;;;6.50;99.90;;;;;;5009023;28;20201;-32
2022/12/02 07:33:33;;;;;;;76.27;38.17;;;6.50;99.90;;;;;;5008743;28;20710;-32
2022/12/02 07:36:03;;;;;;;66.37;34.27;;;6.50;99.90;;;;;;5008686;28;20285;-33
2022/12/02 07:38:32;;;;;;;67.50;35.60;;;6.40;99.90;;;;;;5008087;28;20225;-33
2022/12/02 07:41:19;;;;;;;69.73;35.17;;;6.40;99.90;;;;;;5008412;28;20300;-33
2022/12/02 07:43:46;;;;;;;81.97;38.27;;;6.40;99.90;;;;;;5008282;28;20293;-33
2022/12/02 07:46:14;;;;;;;81.20;37.47;;;6.40;99.90;;;;;;5008711;28;20202;-33
2022/12/02 07:48:46;;;;;;;70.20;34.20;;;6.30;99.90;;;;;;5007859;28;20279;-33
2022/12/02 07:51:23;;;;;;;66.10;32.30;;;6.30;99.90;;;;;;5008050;28;20232;-33
2022/12/02 07:53:51;;;;;;;71.30;34.57;;;6.30;99.90;;;;;;5006586;28;20202;-33
2022/12/02 07:56:23;;;;;;;72.43;33.87;;;6.30;99.90;;;;;;5007885;28;20217;-33
2022/12/02 07:58:50;;;;;;;69.07;32.70;;;6.20;99.90;;;;;;5007774;28;20694;-33
2022/12/02 08:01:37;;;;;;;72.43;34.10;;;6.20;99.90;;;;;;5007768;28;20284;-33
2022/12/02 08:04:07;;;;;;;66.27;34.43;;;6.20;99.90;;;;;;5022865;28;20208;-33
2022/12/02 08:06:34;;;;;;;64.33;32.90;;;6.10;99.90;;;;;;5007490;28;20699;-33
2022/12/02 08:09:09;;;;;;;58.70;32.13;;;6.10;99.90;;;;;;5007824;28;20691;-33
2022/12/02 08:11:41;;;;;;;63.47;32.47;;;6.10;99.90;;;;;;5007445;28;20212;-33
2022/12/02 08:14:08;;;;;;;59.50;31.07;;;6.10;99.90;;;;;;5007852;28;20284;-33
2022/12/02 08:16:35;;;;;;;54.33;28.90;;;6.10;99.90;;;;;;5007690;28;20324;-33
2022/12/02 08:19:04;;;;;;;57.60;31.43;;;6.10;99.90;;;;;;5007689;28;20285;-33
2022/12/02 08:21:32;;;;;;;56.57;29.97;;;6.10;99.90;;;;;;5007974;28;20250;-33
2022/12/02 08:24:00;;;;;;;59.40;29.60;;;6.10;99.90;;;;;;5007939;28;20251;-33
2022/12/02 08:26:32;;;;;;;58.77;30.67;;;6.00;99.90;;;;;;5006527;28;20210;-33
2022/12/02 08:29:02;;;;;;;61.33;30.60;;;6.00;99.90;;;;;;5007501;28;20532;-33
2022/12/02 08:31:34;;;;;;;62.97;31.23;;;6.00;99.90;;;;;;5007831;28;20571;-33
2022/12/02 08:34:03;;;;;;;60.33;30.53;;;6.00;99.90;;;;;;5007764;28;20197;-33
2022/12/02 08:36:34;;;;;;;62.53;31.07;;;6.00;99.90;;;;;;5006833;28;20222;-33
2022/12/02 08:39:04;;;;;;;59.20;30.70;;;5.90;99.90;;;;;;5007403;28;20208;-33
2022/12/02 08:41:35;;;;;;;64.60;33.53;;;5.90;99.90;;;;;;5007412;28;20225;-33
2022/12/02 08:44:03;;;;;;;67.07;31.33;;;6.00;99.90;;;;;;5021855;28;20197;-33
2022/12/02 08:46:31;;;;;;;71.97;31.87;;;5.90;99.90;;;;;;5021932;28;20209;-33
2022/12/02 08:48:59;;;;;;;70.93;33.40;;;5.90;99.90;;;;;;5007179;28;20884;-33
2022/12/02 08:51:26;;;;;;;67.43;31.00;;;5.90;99.90;;;;;;5007119;28;20237;-33
2022/12/02 08:53:58;;;;;;;63.97;31.93;;;5.90;99.90;;;;;;5021654;28;20275;-33
2022/12/02 08:56:30;;;;;;;68.23;29.63;;;5.90;99.90;;;;;;5021619;28;20767;-33
2022/12/02 08:59:02;;;;;;;65.87;31.77;;;5.90;99.90;;;;;;5021180;28;20224;-33
2022/12/02 09:01:29;;;;;;;61.67;30.77;;;5.80;99.90;;;;;;5006911;28;20201;-33
2022/12/02 09:03:59;;;;;;;67.97;34.00;;;5.80;99.90;;;;;;5006569;28;20233;-33
2022/12/02 09:06:26;;;;;;;64.27;31.37;;;5.90;99.90;;;;;;5004870;28;20265;-33
2022/12/02 09:09:02;;;;;;;63.23;31.97;;;5.90;99.90;;;;;;5006494;28;20692;-33
2022/12/02 09:11:32;;;;;;;60.53;30.43;;;5.90;99.90;;;;;;5006394;28;20253;-33
2022/12/02 09:13:59;;;;;;;55.60;29.60;;;5.90;99.90;;;;;;5004847;28;20287;-33
2022/12/02 09:16:27;;;;;;;58.97;29.17;;;5.90;99.90;;;;;;5006181;28;20683;-33
2022/12/02 09:18:57;;;;;;;52.83;27.07;;;5.90;99.90;;;;;;5006354;28;20231;-33
2022/12/02 09:21:27;;;;;;;56.43;25.80;;;6.00;99.90;;;;;;5021434;28;20201;-33
2022/12/02 09:23:58;;;;;;;52.70;25.67;;;6.00;99.90;;;;;;5006698;28;20210;-33
2022/12/02 09:26:28;;;;;;;51.60;25.20;;;6.00;99.90;;;;;;5006597;28;20202;-33
2022/12/02 09:28:59;;;;;;;53.80;26.23;;;6.00;99.90;;;;;;5021385;28;20244;-33
2022/12/02 09:31:31;;;;;;;50.57;25.50;;;6.00;99.90;;;;;;5006622;28;20213;-33
2022/12/02 09:34:03;;;;;;;53.87;25.77;;;6.00;99.90;;;;;;5006700;28;20205;-33
2022/12/02 09:36:35;;;;;;;51.23;25.23;;;6.10;99.90;;;;;;5006209;28;20477;-33
2022/12/02 09:39:04;;;;;;;59.30;28.60;;;6.10;99.90;;;;;;5006307;28;20212;-33
2022/12/02 09:41:32;;;;;;;52.67;26.67;;;6.10;99.90;;;;;;5006371;28;20665;-33
2022/12/02 09:43:59;;;;;;;57.63;28.23;;;6.10;99.90;;;;;;5006783;28;20248;-33
2022/12/02 09:46:31;;;;;;;63.63;29.53;;;6.10;99.90;;;;;;5006476;28;20704;-33
2022/12/02 09:48:58;;;;;;;57.63;28.40;;;6.10;99.90;;;;;;5006977;28;20705;-33
2022/12/02 09:51:28;;;;;;;60.33;28.20;;;6.10;99.90;;;;;;5010476;28;20584;-33
2022/12/02 09:53:56;;;;;;;63.77;30.97;;;6.10;99.90;;;;;;5010246;28;20194;-33
2022/12/02 09:56:23;;;;;;;67.95;32.10;;;6.00;99.90;;;;;;5025748;28;20638;-33
2022/12/02 09:58:54;;;;;;;62.57;29.10;;;5.90;99.90;;;;;;5010620;28;20950;-33
2022/12/02 10:01:24;;;;;;;66.60;30.57;;;6.00;99.90;;;;;;5011135;28;20198;-33
2022/12/02 10:03:54;;;;;;;60.53;31.17;;;6.00;99.90;;;;;;5025365;28;20204;-33
2022/12/02 10:06:26;;;;;;;60.70;29.03;;;5.90;99.90;;;;;;5011003;28;20236;-33
2022/12/02 10:08:58;;;;;;;63.73;28.93;;;6.00;99.90;;;;;;5010310;28;20582;-33
2022/12/02 10:11:33;;;;;;;62.90;29.50;;;6.00;99.90;;;;;;5009976;28;20201;-33
2022/12/02 10:14:02;;;;;;;60.87;28.47;;;5.90;99.90;;;;;;5025000;28;20687;-33
2022/12/02 10:16:29;;;;;;;55.07;27.50;;;5.90;99.90;;;;;;5024935;28;20237;-33
2022/12/02 10:19:01;;;;;;;56.37;26.87;;;5.90;99.90;;;;;;5025145;28;20221;-33
2022/12/02 10:21:33;;;;;;;57.40;27.57;;;5.90;99.90;;;;;;5009908;28;20194;-33
2022/12/02 10:24:08;;;;;;;57.33;27.53;;;5.90;99.90;;;;;;5009903;28;20201;-33
2022/12/02 10:26:49;;;;;;;55.27;26.97;;;5.90;99.90;;;;;;5009542;28;20220;-33
2022/12/02 10:29:30;;;;;;;57.27;26.37;;;5.90;99.90;;;;;;5008045;28;20304;-33
2022/12/02 10:32:00;;;;;;;53.93;27.03;;;5.90;99.90;;;;;;5007773;28;20225;-33
2022/12/02 10:34:35;;;;;;;51.17;26.83;;;5.90;99.90;;;;;;5009119;28;20312;-34
2022/12/02 10:37:23;;;;;;;57.63;27.47;;;5.90;99.90;;;;;;5009129;28;20221;-33
2022/12/02 10:40:09;;;;;;;57.40;27.63;;;5.90;99.90;;;;;;5009391;28;20205;-33
2022/12/02 10:42:43;;;;;;;52.20;27.10;;;6.00;99.90;;;;;;5023956;28;20218;-33
2022/12/02 10:45:22;;;;;;;49.40;25.80;;;6.00;99.90;;;;;;5007602;28;20200;-33
2022/12/02 10:48:09;;;;;;;49.03;25.17;;;6.00;99.90;;;;;;5023758;28;20771;-33
2022/12/02 10:50:36;;;;;;;51.67;24.07;;;6.10;99.90;;;;;;5008275;28;20699;-32
2022/12/02 10:53:12;;;;;;;46.97;24.40;;;6.10;99.90;;;;;;5008812;28;20332;-33
2022/12/02 10:55:39;;;;;;;45.73;23.93;;;6.10;99.90;;;;;;5009249;28;20229;-33
2022/12/02 10:58:15;;;;;;;50.17;24.77;;;6.10;99.90;;;;;;5008936;28;20224;-33
2022/12/02 11:00:48;;;;;;;45.20;23.70;;;6.10;99.90;;;;;;5008149;28;20217;-33
2022/12/02 11:03:19;;;;;;;48.20;23.47;;;6.20;99.90;;;;;;5022850;28;20221;-33
2022/12/02 11:05:46;;;;;;;50.20;24.13;;;6.10;99.90;;;;;;5008903;28;20300;-33
2022/12/02 11:08:22;;;;;;;47.13;23.13;;;6.20;99.90;;;;;;5008662;28;20292;-33
2022/12/02 11:11:12;;;;;;;46.47;21.97;;;6.10;99.90;;;;;;5008463;28;20213;-33
2022/12/02 11:13:59;;;;;;;44.53;21.37;;;6.10;99.90;;;;;;5008752;28;20856;-33
2022/12/02 11:16:26;;;;;;;45.23;22.17;;;6.10;99.90;;;;;;5008594;28;20210;-33
2022/12/02 11:19:07;;;;;;;44.60;22.20;;;6.10;99.90;;;;;;5023304;28;20754;-33
2022/12/02 11:21:42;;;;;;;41.27;21.90;;;6.20;99.90;;;;;;5008182;28;20615;-33
2022/12/02 11:24:22;;;;;;;44.37;22.63;;;6.20;99.90;;;;;;5008094;28;20205;-33
2022/12/02 11:26:59;;;;;;;43.80;22.93;;;6.20;99.90;;;;;;5007991;28;20247;-33
2022/12/02 11:29:32;;;;;;;48.00;22.17;;;6.20;99.90;;;;;;5008408;28;20637;-33
2022/12/02 11:31:59;;;;;;;46.67;23.63;;;6.20;99.90;;;;;;5008168;28;20205;-32
2022/12/02 11:34:41;;;;;;;51.10;22.73;;;6.20;99.90;;;;;;5007924;28;20321;-32
2022/12/02 11:37:34;;;;;;;42.07;21.10;;;6.20;99.90;;;;;;5007780;28;20707;-33
2022/12/02 11:40:10;;;;;;;42.97;21.30;;;6.20;99.90;;;;;;5008083;28;20645;-33
2022/12/02 11:42:46;;;;;;;41.33;20.43;;;6.20;99.90;;;;;;5008210;28;20209;-33
2022/12/02 11:45:16;;;;;;;43.37;20.43;;;6.20;99.90;;;;;;5008244;28;20292;-33
2022/12/02 11:47:45;;;;;;;39.93;20.50;;;6.20;99.90;;;;;;5007846;28;20301;-33
2022/12/02 11:50:15;;;;;;;45.73;22.00;;;6.20;99.90;;;;;;5007762;28;20325;-33
2022/12/02 11:52:58;;;;;;;41.50;21.13;;;6.20;99.90;;;;;;5007707;28;21008;-33
2022/12/02 11:55:44;;;;;;;42.53;20.13;;;6.20;99.90;;;;;;5007832;28;20626;-33
2022/12/02 11:58:31;;;;;;;41.17;19.70;;;6.20;99.90;;;;;;5007704;28;20218;-33
2022/12/02 12:01:03;;;;;;;37.00;19.20;;;6.20;99.90;;;;;;5006623;28;20198;-33
2022/12/02 12:03:33;;;;;;;33.67;18.63;;;6.20;99.90;;;;;;5007999;28;20229;-33
2022/12/02 12:06:16;;;;;;;31.80;17.33;;;6.20;99.90;;;;;;5007072;28;20193;-33
2022/12/02 12:08:49;;;;;;;32.83;18.83;;;6.20;99.90;;;;;;5006694;28;20205;-33
2022/12/02 12:11:21;;;;;;;32.73;18.13;;;6.20;99.90;;;;;;5007646;28;20213;-32
2022/12/02 12:14:12;;;;;;;36.07;19.30;;;6.20;99.90;;;;;;5007785;28;20642;-33
2022/12/02 12:16:51;;;;;;;36.57;18.13;;;6.20;99.90;;;;;;5008101;28;20243;-33
2022/12/02 12:19:23;;;;;;;35.90;19.37;;;6.20;99.90;;;;;;5007792;28;20202;-33
2022/12/02 12:21:56;;;;;;;38.87;19.07;;;6.20;99.90;;;;;;5022433;28;20209;-33
2022/12/02 12:24:23;;;;;;;38.90;18.80;;;6.10;99.90;;;;;;5007683;28;20225;-33
2022/12/02 12:27:13;;;;;;;35.30;17.70;;;6.10;99.90;;;;;;5007899;28;20209;-33
2022/12/02 12:29:43;;;;;;;37.63;19.27;;;6.10;99.90;;;;;;5007613;28;20213;-33
2022/12/02 12:32:10;;;;;;;30.17;17.20;;;6.10;99.90;;;;;;5007416;28;20279;-33
2022/12/02 12:34:40;;;;;;;36.47;18.03;;;6.20;99.90;;;;;;5007508;28;20198;-33
2022/12/02 12:37:10;;;;;;;32.10;17.37;;;6.20;99.90;;;;;;5007520;28;20198;-32
2022/12/02 12:39:41;;;;;;;31.90;18.13;;;6.20;99.90;;;;;;5008031;28;20217;-33
2022/12/02 12:42:11;;;;;;;30.63;18.27;;;6.20;99.90;;;;;;5007783;28;20233;-33
2022/12/02 12:44:38;;;;;;;32.17;17.93;;;6.30;99.90;;;;;;5006941;28;20228;-33
2022/12/02 12:47:06;;;;;;;32.57;18.03;;;6.30;99.90;;;;;;5006812;28;20221;-33
2022/12/02 12:49:36;;;;;;;31.07;17.83;;;6.30;99.90;;;;;;5005982;28;20229;-33
2022/12/02 12:52:05;;;;;;;35.60;18.23;;;6.30;99.90;;;;;;5007458;28;20681;-33
2022/12/02 12:54:34;;;;;;;37.67;19.77;;;6.20;99.90;;;;;;5007468;28;20279;-32
2022/12/02 12:57:01;;;;;;;38.83;20.20;;;6.20;99.90;;;;;;5006896;28;20209;-33
2022/12/02 12:59:32;;;;;;;42.37;20.57;;;6.20;99.90;;;;;;5021916;28;20239;-33
2022/12/02 13:01:59;;;;;;;42.93;22.77;;;6.10;99.90;;;;;;5005872;28;20243;-33